Time;durP1;ratioP1;P1;durP2;ratioP2;P2;SDS_P1;SDS_P2;PMS_P1;PMS_P2;Temp;Humidity;BMP_temperature;BMP_pressure;BME280_temperature;BME280_humidity;BME280_pressure;Samples;Min_cycle;Max_cycle;Signal;HPM_P1;HPM_P2
2023/12/20 00:02:16;;;;;;;1.27;0.93;;;6.60;99.90;;;;;;4984833;28;20212;-82
2023/12/20 00:04:41;;;;;;;1.23;0.93;;;6.60;99.90;;;;;;4999113;28;20599;-86
2023/12/20 00:07:07;;;;;;;1.63;1.27;;;6.70;99.90;;;;;;4982923;28;20275;-84
2023/12/20 00:09:33;;;;;;;4.80;1.97;;;6.80;99.90;;;;;;4988491;28;20199;-84
2023/12/20 00:11:58;;;;;;;1.50;1.40;;;6.90;99.90;;;;;;4984150;28;20206;-83
2023/12/20 00:14:24;;;;;;;3.77;1.77;;;6.80;99.90;;;;;;4988743;28;20190;-84
2023/12/20 00:16:49;;;;;;;3.60;2.00;;;6.80;99.90;;;;;;5000499;28;20581;-80
2023/12/20 00:19:15;;;;;;;2.73;2.10;;;6.70;99.90;;;;;;5005717;28;22007;-81
2023/12/20 00:21:40;;;;;;;5.90;2.07;;;6.60;99.90;;;;;;4999082;28;20194;-79
2023/12/20 00:24:06;;;;;;;4.37;3.00;;;6.60;99.90;;;;;;5000632;28;20194;-81
2023/12/20 00:26:31;;;;;;;3.37;2.27;;;6.50;99.90;;;;;;4999924;28;21101;-79
2023/12/20 00:28:59;;;;;;;3.93;2.97;;;6.60;99.90;;;;;;4986586;28;20194;-81
2023/12/20 00:31:24;;;;;;;3.05;1.95;;;6.50;99.90;;;;;;4998713;28;20214;-84
2023/12/20 00:33:50;;;;;;;7.20;2.43;;;6.50;99.90;;;;;;4987671;28;20580;-79
2023/12/20 00:36:15;;;;;;;3.00;1.97;;;6.40;99.90;;;;;;4998730;28;20229;-82
2023/12/20 00:38:41;;;;;;;1.90;1.70;;;6.30;99.90;;;;;;5004360;28;20819;-83
2023/12/20 00:41:06;;;;;;;1.57;1.30;;;6.30;99.90;;;;;;4985618;28;20179;-85
2023/12/20 00:43:32;;;;;;;2.03;1.60;;;6.20;99.90;;;;;;4989298;28;20199;-81
2023/12/20 00:45:59;;;;;;;2.77;1.60;;;6.30;99.90;;;;;;5003915;28;20189;-80
2023/12/20 00:48:26;;;;;;;7.35;2.47;;;6.20;99.90;;;;;;5002924;28;20179;-80
2023/12/20 00:50:52;;;;;;;2.00;1.80;;;6.10;99.90;;;;;;4990040;28;20229;-81
2023/12/20 00:53:18;;;;;;;1.93;1.50;;;6.10;99.90;;;;;;5002410;28;22114;-79
2023/12/20 00:55:44;;;;;;;4.33;2.57;;;6.00;99.90;;;;;;5002429;28;20186;-83
2023/12/20 00:58:10;;;;;;;3.22;1.75;;;6.00;99.90;;;;;;4994972;28;20205;-83
2023/12/20 01:00:35;;;;;;;1.00;0.70;;;5.90;99.90;;;;;;5011279;28;20183;-83
2023/12/20 01:03:01;;;;;;;3.50;1.20;;;5.80;99.90;;;;;;4992664;28;20199;-81
2023/12/20 01:05:26;;;;;;;1.30;0.97;;;5.80;99.90;;;;;;5005625;28;20834;-83
2023/12/20 01:07:52;;;;;;;0.80;0.73;;;5.70;99.90;;;;;;5002829;28;20203;-82
2023/12/20 01:10:17;;;;;;;2.47;1.50;;;5.80;99.90;;;;;;5000251;28;20232;-79
2023/12/20 01:12:43;;;;;;;0.90;0.90;;;5.70;99.90;;;;;;5002405;28;20309;-79
2023/12/20 01:15:09;;;;;;;0.63;0.60;;;5.70;99.90;;;;;;5004845;28;20223;-82
2023/12/20 01:17:35;;;;;;;1.17;0.50;;;5.70;99.90;;;;;;4986439;28;20230;-85
2023/12/20 01:20:01;;;;;;;2.30;0.97;;;5.70;99.90;;;;;;5008400;28;20711;-85
2023/12/20 01:22:26;;;;;;;0.50;0.50;;;5.70;99.90;;;;;;5009304;28;20813;-83
2023/12/20 01:24:52;;;;;;;0.50;0.43;;;5.70;99.90;;;;;;5004452;28;20184;-83
2023/12/20 01:27:17;;;;;;;0.47;0.40;;;5.70;99.90;;;;;;5002114;28;20259;-81
2023/12/20 01:29:43;;;;;;;1.80;0.80;;;5.80;99.90;;;;;;5003142;28;20239;-81
2023/12/20 01:32:08;;;;;;;0.40;0.30;;;5.80;99.90;;;;;;4989702;28;20210;-82
2023/12/20 01:34:34;;;;;;;0.50;0.50;;;5.70;99.90;;;;;;4989572;28;20190;-82
2023/12/20 01:37:00;;;;;;;1.27;0.60;;;5.70;99.90;;;;;;4989821;28;20198;-81
2023/12/20 01:39:25;;;;;;;0.80;0.70;;;5.70;99.90;;;;;;4989129;28;20354;-82
2023/12/20 01:41:51;;;;;;;0.80;0.50;;;5.60;99.90;;;;;;5004607;28;20445;-81
2023/12/20 01:44:16;;;;;;;1.27;0.80;;;5.60;99.90;;;;;;4991240;28;20265;-83
2023/12/20 01:46:42;;;;;;;1.07;0.83;;;5.60;99.90;;;;;;4989026;28;20680;-83
2023/12/20 01:49:08;;;;;;;1.00;0.40;;;5.60;99.90;;;;;;4985685;28;20193;-81
2023/12/20 01:51:34;;;;;;;0.52;0.38;;;5.70;99.90;;;;;;5005306;28;20222;-85
2023/12/20 01:54:00;;;;;;;1.95;0.52;;;5.60;99.90;;;;;;5008722;28;20682;-82
2023/12/20 01:56:28;;;;;;;0.50;0.45;;;5.60;99.90;;;;;;4999166;28;20202;-83
2023/12/20 01:58:54;;;;;;;0.60;0.47;;;5.60;99.90;;;;;;4988273;28;20206;-84
2023/12/20 02:01:19;;;;;;;0.50;0.30;;;5.50;99.90;;;;;;5001747;28;20174;-81
2023/12/20 02:03:45;;;;;;;0.80;0.40;;;5.50;99.90;;;;;;5004689;28;20279;-86
2023/12/20 02:06:11;;;;;;;0.40;0.40;;;5.60;99.90;;;;;;4992373;28;20225;-83
2023/12/20 02:08:37;;;;;;;0.77;0.50;;;5.60;99.90;;;;;;4989106;28;20178;-83
2023/12/20 02:11:02;;;;;;;0.63;0.37;;;5.50;99.90;;;;;;5001493;28;20170;-82
2023/12/20 02:13:28;;;;;;;0.37;0.20;;;5.40;99.90;;;;;;4993477;28;20259;-84
2023/12/20 02:15:54;;;;;;;3.63;0.40;;;5.40;99.90;;;;;;4987645;28;20190;-84
2023/12/20 02:18:20;;;;;;;0.40;0.38;;;5.40;99.90;;;;;;5005608;28;21099;-84
2023/12/20 02:20:45;;;;;;;0.37;0.30;;;5.50;99.90;;;;;;4987837;28;20183;-84
2023/12/20 02:23:11;;;;;;;0.40;0.40;;;5.40;99.90;;;;;;5005931;28;20246;-85
2023/12/20 02:25:37;;;;;;;0.40;0.30;;;5.40;99.90;;;;;;4992663;28;20690;-88
2023/12/20 02:28:03;;;;;;;0.50;0.40;;;5.40;99.90;;;;;;5003415;28;20195;-87
2023/12/20 02:30:29;;;;;;;1.05;0.43;;;5.30;99.90;;;;;;4990569;28;20198;-82
2023/12/20 02:32:54;;;;;;;0.50;0.33;;;5.40;99.90;;;;;;5000777;28;20278;-81
2023/12/20 02:35:20;;;;;;;0.40;0.30;;;5.30;99.90;;;;;;5004922;28;20553;-84
2023/12/20 02:37:46;;;;;;;3.13;0.50;;;5.30;99.90;;;;;;4988579;28;20288;-84
2023/12/20 02:40:11;;;;;;;0.40;0.40;;;5.30;99.90;;;;;;4994636;28;20254;-84
2023/12/20 02:42:36;;;;;;;0.90;0.87;;;6.80;99.90;;;;;;4990216;28;20277;-84
2023/12/20 02:45:02;;;;;;;0.50;0.40;;;5.30;99.90;;;;;;5005238;28;20247;-84
2023/12/20 02:47:29;;;;;;;0.40;0.30;;;5.30;99.90;;;;;;5005825;28;20273;-85
2023/12/20 02:49:55;;;;;;;0.40;0.30;;;5.30;99.90;;;;;;4990185;28;20186;-85
2023/12/20 02:52:21;;;;;;;0.60;0.60;;;5.20;99.90;;;;;;5004609;28;20202;-84
2023/12/20 02:54:47;;;;;;;0.40;0.30;;;5.10;99.90;;;;;;4991940;28;20185;-85
2023/12/20 02:57:12;;;;;;;0.40;0.40;;;5.10;99.90;;;;;;4993292;28;20214;-85
2023/12/20 02:59:37;;;;;;;0.30;0.30;;;5.10;99.90;;;;;;4988442;28;20657;-85
2023/12/20 03:02:03;;;;;;;0.30;0.30;;;5.10;99.90;;;;;;4990052;28;20221;-87
2023/12/20 03:04:28;;;;;;;0.30;0.30;;;5.10;99.90;;;;;;4994883;28;20808;-86
2023/12/20 03:06:54;;;;;;;1.57;0.40;;;5.10;99.90;;;;;;5005605;28;20199;-86
2023/12/20 03:09:19;;;;;;;0.40;0.40;;;5.20;99.90;;;;;;4994101;28;20211;-87
2023/12/20 03:11:45;;;;;;;0.50;0.40;;;5.20;99.90;;;;;;4990669;28;20203;-87
2023/12/20 03:14:10;;;;;;;0.70;0.70;;;5.20;99.90;;;;;;5004981;28;20171;-83
2023/12/20 03:16:36;;;;;;;0.30;0.30;;;5.20;99.90;;;;;;5009491;28;20218;-88
2023/12/20 03:19:02;;;;;;;0.40;0.30;;;5.20;99.90;;;;;;4992338;28;20179;-85
2023/12/20 03:21:28;;;;;;;0.82;0.70;;;5.20;99.90;;;;;;4990238;28;20187;-87
2023/12/20 03:23:53;;;;;;;0.60;0.43;;;5.10;99.90;;;;;;5004046;28;20178;-84
2023/12/20 03:26:19;;;;;;;2.00;0.30;;;5.20;99.90;;;;;;5005543;28;20190;-83
2023/12/20 03:28:44;;;;;;;0.40;0.37;;;5.20;99.90;;;;;;4986136;28;20488;-85
2023/12/20 03:31:10;;;;;;;0.30;0.30;;;5.20;99.90;;;;;;5005729;28;20186;-83
2023/12/20 03:33:36;;;;;;;0.77;0.38;;;5.20;99.90;;;;;;5004018;28;20178;-83
2023/12/20 03:36:02;;;;;;;1.37;0.97;;;5.20;99.90;;;;;;4999051;28;20190;-84
2023/12/20 03:38:27;;;;;;;0.30;0.20;;;5.20;99.90;;;;;;5004492;28;20182;-84
2023/12/20 03:40:53;;;;;;;0.43;0.43;;;5.30;99.90;;;;;;4994677;28;20194;-85
2023/12/20 03:43:18;;;;;;;0.40;0.40;;;5.20;99.90;;;;;;4983224;28;20197;-83
2023/12/20 03:45:43;;;;;;;0.73;0.70;;;5.20;99.90;;;;;;5001837;28;20187;-83
2023/12/20 03:48:09;;;;;;;1.17;1.07;;;5.10;99.90;;;;;;5008513;28;20271;-84
2023/12/20 03:50:35;;;;;;;0.40;0.30;;;5.10;99.90;;;;;;4989887;28;20277;-85
2023/12/20 03:53:01;;;;;;;1.00;0.60;;;5.10;99.90;;;;;;5004946;28;20238;-83
2023/12/20 03:55:26;;;;;;;0.30;0.20;;;5.10;99.90;;;;;;5004432;28;20449;-85
2023/12/20 03:57:52;;;;;;;0.60;0.60;;;5.10;99.90;;;;;;5006638;23;20305;-87
2023/12/20 04:00:18;;;;;;;0.60;0.60;;;5.10;99.90;;;;;;4988965;28;20187;-88
2023/12/20 04:02:43;;;;;;;0.40;0.30;;;5.10;99.90;;;;;;4987608;28;20183;-87
2023/12/20 04:05:10;;;;;;;0.30;0.20;;;5.10;99.90;;;;;;4991491;28;20179;-88
2023/12/20 04:07:36;;;;;;;0.30;0.30;;;4.50;99.90;;;;;;4991262;28;20203;-86
2023/12/20 04:10:03;;;;;;;0.40;0.40;;;;;;;;;;4986356;28;20274;-84
2023/12/20 04:12:29;;;;;;;0.82;0.50;;;5.10;99.90;;;;;;4989221;28;20462;-88
2023/12/20 04:14:54;;;;;;;0.30;0.30;;;4.70;99.90;;;;;;4988272;28;20187;-86
2023/12/20 04:17:22;;;;;;;1.93;0.70;;;6.30;99.90;;;;;;4990800;28;20183;-87
2023/12/20 04:19:48;;;;;;;0.40;0.30;;;4.60;99.90;;;;;;4992605;28;20290;-88
2023/12/20 04:22:19;;;;;;;4.55;0.52;;;4.80;99.90;;;;;;4995046;28;20180;-89
2023/12/20 04:24:45;;;;;;;0.47;0.40;;;5.00;99.90;;;;;;4993590;28;20183;-87
2023/12/20 04:27:15;;;;;;;0.40;0.30;;;5.00;99.90;;;;;;4980362;28;20612;-86
2023/12/20 04:29:40;;;;;;;0.88;0.40;;;6.30;99.90;;;;;;4979999;28;20828;-86
2023/12/20 04:32:06;;;;;;;0.40;0.30;;;6.10;99.90;;;;;;4986662;28;20219;-86
2023/12/20 04:34:32;;;;;;;0.53;0.50;;;6.70;99.90;;;;;;5000019;28;20175;-86
2023/12/20 04:36:57;;;;;;;0.67;0.50;;;6.00;99.90;;;;;;5011422;28;20452;-89
2023/12/20 04:39:23;;;;;;;1.10;0.40;;;;;;;;;;5007373;28;20207;-87
2023/12/20 04:41:50;;;;;;;1.13;0.50;;;5.30;99.90;;;;;;5014485;28;20191;-87
2023/12/20 04:44:15;;;;;;;0.60;0.60;;;6.60;99.90;;;;;;5000879;28;20441;-87
2023/12/20 04:46:41;;;;;;;1.80;0.67;;;;;;;;;;5000179;28;20286;-86
2023/12/20 04:49:07;;;;;;;0.70;0.50;;;5.30;99.90;;;;;;5010248;28;20260;-86
2023/12/20 04:51:36;;;;;;;0.53;0.53;;;5.20;99.90;;;;;;4990721;28;20478;-87
2023/12/20 04:54:06;;;;;;;0.70;0.60;;;5.30;99.90;;;;;;5009412;28;20183;-88
2023/12/20 04:56:32;;;;;;;2.78;0.88;;;4.70;99.90;;;;;;4999371;28;20195;-87
2023/12/20 04:58:58;;;;;;;0.90;0.37;;;;;;;;;;4992400;28;20631;-86
2023/12/20 05:01:23;;;;;;;1.57;0.80;;;5.30;99.90;;;;;;4992544;28;20183;-88
2023/12/20 05:03:49;;;;;;;0.73;0.60;;;;;;;;;;4999773;28;20441;-84
2023/12/20 05:06:15;;;;;;;0.70;0.70;;;;;;;;;;5015692;28;20175;-86
2023/12/20 05:08:41;;;;;;;0.30;0.30;;;5.40;99.90;;;;;;5009494;28;20505;-85
2023/12/20 05:11:06;;;;;;;0.40;0.33;;;5.00;99.90;;;;;;4989613;28;20473;-86
2023/12/20 05:13:32;;;;;;;0.70;0.67;;;5.50;99.90;;;;;;4990507;28;20222;-84
2023/12/20 05:15:58;;;;;;;0.97;0.97;;;;;;;;;;4970557;28;20209;-85
2023/12/20 05:18:24;;;;;;;1.43;0.70;;;;;;;;;;5002928;28;20661;-87
2023/12/20 05:20:51;;;;;;;0.77;0.68;;;5.40;99.90;;;;;;5001065;28;20425;-85
2023/12/20 05:23:17;;;;;;;1.05;0.50;;;5.30;99.90;;;;;;4985787;28;20319;-87
2023/12/20 05:25:42;;;;;;;0.73;0.50;;;5.30;99.90;;;;;;4986112;28;20191;-88
2023/12/20 05:28:08;;;;;;;0.83;0.57;;;5.40;99.90;;;;;;4987207;28;20243;-87
2023/12/20 05:30:34;;;;;;;0.87;0.87;;;5.40;99.90;;;;;;4989367;28;20194;-86
2023/12/20 05:32:59;;;;;;;0.40;0.40;;;5.40;99.90;;;;;;4965627;28;20299;-86
2023/12/20 05:35:24;;;;;;;0.90;0.83;;;5.40;99.90;;;;;;4963128;28;21041;-86
2023/12/20 05:37:50;;;;;;;1.73;0.63;;;;;;;;;;5005320;28;20293;-87
2023/12/20 05:40:16;;;;;;;2.80;0.60;;;;;;;;;;4967463;28;20527;-86
2023/12/20 05:42:43;;;;;;;0.70;0.50;;;5.40;99.90;;;;;;4995051;28;20846;-86
2023/12/20 05:45:11;;;;;;;0.50;0.38;;;5.40;99.90;;;;;;4992466;28;21223;-84
2023/12/20 05:47:36;;;;;;;1.08;0.80;;;5.40;99.90;;;;;;4997819;28;20191;-86
2023/12/20 05:50:02;;;;;;;0.50;0.50;;;5.40;99.90;;;;;;4996799;28;20230;-86
2023/12/20 05:52:28;;;;;;;1.50;0.60;;;5.40;99.90;;;;;;5001075;28;21152;-85
2023/12/20 05:54:53;;;;;;;0.50;0.37;;;6.40;99.90;;;;;;4988853;28;20218;-86
2023/12/20 05:57:19;;;;;;;1.13;0.87;;;;;;;;;;4986834;28;20559;-88
2023/12/20 05:59:44;;;;;;;0.60;0.40;;;5.40;99.90;;;;;;4979191;28;20198;-84
2023/12/20 06:02:10;;;;;;;0.50;0.47;;;5.40;99.90;;;;;;4992911;28;20805;-86
2023/12/20 06:04:43;;;;;;;0.73;0.40;;;6.10;99.90;;;;;;4988688;28;20610;-89
2023/12/20 06:07:17;;;;;;;1.17;0.93;;;5.50;99.90;;;;;;4996691;28;20774;-86
2023/12/20 06:09:46;;;;;;;1.90;0.65;;;5.50;99.90;;;;;;5002536;28;20190;-86
2023/12/20 06:12:12;;;;;;;1.58;0.75;;;5.50;99.90;;;;;;4988705;28;21134;-87
2023/12/20 06:14:39;;;;;;;1.00;0.70;;;5.50;99.90;;;;;;4987244;28;20399;-87
2023/12/20 06:17:05;;;;;;;1.80;0.75;;;5.50;99.90;;;;;;4987340;28;20195;-86
2023/12/20 06:19:31;;;;;;;1.43;1.30;;;;;;;;;;4993703;28;20780;-86
2023/12/20 06:21:56;;;;;;;0.40;0.40;;;5.50;99.90;;;;;;5013969;28;20208;-86
2023/12/20 06:24:22;;;;;;;1.63;1.00;;;5.50;99.90;;;;;;4990428;28;20438;-88
2023/12/20 06:26:48;;;;;;;0.93;0.60;;;5.50;99.90;;;;;;4975696;28;20217;-86
2023/12/20 06:29:14;;;;;;;2.60;1.03;;;;;;;;;;4991816;28;20195;-88
2023/12/20 06:31:40;;;;;;;3.43;0.80;;;5.50;99.90;;;;;;5009972;28;20290;-86
2023/12/20 06:34:06;;;;;;;3.20;1.20;;;;;;;;;;4988833;28;21003;-88
2023/12/20 06:36:31;;;;;;;1.43;1.13;;;5.50;99.90;;;;;;4985998;28;20187;-86
2023/12/20 06:38:57;;;;;;;3.33;1.33;;;;;;;;;;4988090;28;20477;-87
2023/12/20 06:41:24;;;;;;;1.55;1.23;;;5.50;99.90;;;;;;4990508;28;20198;-87
2023/12/20 06:43:50;;;;;;;2.15;0.70;;;5.00;99.90;;;;;;4996493;28;20241;-86
2023/12/20 06:46:16;;;;;;;1.77;1.67;;;;;;;;;;5006014;28;20171;-87
2023/12/20 06:48:42;;;;;;;1.00;0.90;;;5.50;99.90;;;;;;5014440;28;20221;-88
2023/12/20 06:51:12;;;;;;;1.70;1.27;;;5.50;99.90;;;;;;4994137;28;20194;-88
2023/12/20 06:53:38;;;;;;;1.45;1.25;;;5.70;99.90;;;;;;4989289;28;20222;-90
2023/12/20 06:56:05;;;;;;;1.73;1.47;;;6.30;99.90;;;;;;5014230;28;20175;-85
2023/12/20 06:58:30;;;;;;;1.15;0.77;;;5.50;99.90;;;;;;4989758;28;20215;-88
2023/12/20 07:00:56;;;;;;;2.40;1.43;;;;;;;;;;4990293;28;20194;-88
2023/12/20 07:03:22;;;;;;;3.90;1.40;;;;;;;;;;5021232;28;20175;-88
2023/12/20 07:05:48;;;;;;;2.67;1.13;;;5.50;99.90;;;;;;4996480;28;20495;-88
2023/12/20 07:08:15;;;;;;;1.20;0.53;;;;;;;;;;4986583;28;20462;-86
2023/12/20 07:10:41;;;;;;;1.23;0.73;;;5.50;99.90;;;;;;5007174;28;20217;-87
2023/12/20 07:13:07;;;;;;;1.27;0.68;;;5.40;99.90;;;;;;4994456;28;20677;-88
2023/12/20 07:15:33;;;;;;;1.15;1.05;;;6.00;99.90;;;;;;4991891;28;20228;-87
2023/12/20 07:18:00;;;;;;;1.60;1.50;;;6.50;99.90;;;;;;4986814;28;20621;-87
2023/12/20 07:20:32;;;;;;;2.40;1.20;;;6.60;99.90;;;;;;4994676;28;20262;-87
2023/12/20 07:22:58;;;;;;;1.40;0.65;;;;;;;;;;4998170;28;20194;-86
2023/12/20 07:25:27;;;;;;;1.57;1.23;;;5.30;99.90;;;;;;5002672;28;20179;-85
2023/12/20 07:27:59;;;;;;;0.70;0.70;;;4.80;99.90;;;;;;4995390;28;20449;-86
2023/12/20 07:30:24;;;;;;;1.02;0.82;;;5.30;99.90;;;;;;4974936;28;20211;-87
2023/12/20 07:32:52;;;;;;;1.67;0.90;;;;;;;;;;4993724;28;20284;-87
2023/12/20 07:35:29;;;;;;;0.57;0.57;;;5.20;99.90;;;;;;5009492;28;20247;-86
2023/12/20 07:37:54;;;;;;;1.38;1.23;;;5.20;99.90;;;;;;5002911;28;20289;-87
2023/12/20 07:40:20;;;;;;;1.43;1.23;;;5.20;99.90;;;;;;4989471;28;20282;-88
2023/12/20 07:42:46;;;;;;;2.43;1.67;;;;;;;;;;4994786;28;20212;-86
2023/12/20 07:45:12;;;;;;;1.40;1.17;;;;;;;;;;4989043;28;20236;-86
2023/12/20 07:47:37;;;;;;;0.98;0.68;;;5.10;99.90;;;;;;5000662;28;20315;-88
2023/12/20 07:50:04;;;;;;;2.10;1.30;;;;;;;;;;4990227;28;20669;-85
2023/12/20 07:52:30;;;;;;;1.17;0.93;;;6.30;99.90;;;;;;5053683;28;20934;-86
2023/12/20 07:54:55;;;;;;;0.85;0.85;;;4.50;99.90;;;;;;4988700;28;20208;-84
2023/12/20 07:57:21;;;;;;;2.37;1.00;;;;;;;;;;4967782;28;20225;-87
2023/12/20 07:59:47;;;;;;;0.60;0.57;;;5.00;99.90;;;;;;5018865;28;20221;-86
2023/12/20 08:02:13;;;;;;;2.30;1.00;;;;;;;;;;4999609;28;20175;-86
2023/12/20 08:04:44;;;;;;;1.60;0.97;;;5.10;99.90;;;;;;5002328;28;20222;-89
2023/12/20 08:07:10;;;;;;;1.30;0.88;;;5.10;99.90;;;;;;4992489;28;20465;-91
2023/12/20 08:09:36;;;;;;;1.63;1.27;;;4.70;99.90;;;;;;4988712;28;20183;-87
2023/12/20 08:12:11;;;;;;;3.15;0.65;;;4.50;99.90;;;;;;4988677;28;20225;-88
2023/12/20 08:14:37;;;;;;;1.13;1.08;;;5.00;99.90;;;;;;4987541;28;20663;-87
2023/12/20 08:17:03;;;;;;;0.50;0.40;;;;;;;;;;4980971;28;20179;-86
2023/12/20 08:19:28;;;;;;;6.32;1.90;;;5.70;99.90;;;;;;4991747;28;20264;-89
2023/12/20 08:21:55;;;;;;;1.70;0.80;;;;;;;;;;4987197;28;20714;-88
2023/12/20 08:24:21;;;;;;;4.30;1.50;;;;;;;;;;4988858;28;20209;-84
2023/12/20 08:26:47;;;;;;;1.88;1.30;;;6.40;99.90;;;;;;5000688;28;20250;-88
2023/12/20 08:29:15;;;;;;;1.00;0.60;;;6.80;99.90;;;;;;4991908;28;20235;-89
2023/12/20 08:31:41;;;;;;;1.73;1.00;;;6.30;99.90;;;;;;4965461;28;20179;-88
2023/12/20 08:34:07;;;;;;;1.67;1.40;;;;;;;;;;4992085;28;20190;-86
2023/12/20 08:36:33;;;;;;;1.20;0.80;;;;;;;;;;4996170;28;20284;-89
2023/12/20 08:39:00;;;;;;;0.77;0.77;;;;;;;;;;5005180;28;20246;-88
2023/12/20 08:41:26;;;;;;;1.02;0.88;;;;;;;;;;5012561;28;20499;-86
2023/12/20 08:43:52;;;;;;;3.43;1.33;;;;;;;;;;4989337;28;20557;-88
2023/12/20 08:46:18;;;;;;;0.77;0.55;;;6.90;99.90;;;;;;5007077;28;20423;-89
2023/12/20 08:48:52;;;;;;;1.63;0.63;;;6.60;99.90;;;;;;5004789;28;20222;-85
2023/12/20 08:51:18;;;;;;;1.60;1.50;;;6.60;99.90;;;;;;5008242;28;20472;-88
2023/12/20 08:53:46;;;;;;;0.60;0.47;;;;;;;;;;4999866;28;20210;-88
2023/12/20 08:56:16;;;;;;;1.77;0.75;;;6.80;99.90;;;;;;4997180;28;20184;-84
2023/12/20 08:58:45;;;;;;;1.30;0.70;;;6.60;99.90;;;;;;4999692;28;20215;-89
2023/12/20 09:01:16;;;;;;;3.28;1.42;;;6.80;99.90;;;;;;4988584;28;20228;-87
2023/12/20 09:03:43;;;;;;;1.45;0.95;;;;;;;;;;4969110;28;20245;-85
2023/12/20 09:06:09;;;;;;;0.55;0.55;;;;;;;;;;4993550;28;20233;-87
2023/12/20 09:08:40;;;;;;;0.60;0.60;;;6.80;99.90;;;;;;5018362;28;20345;-88
2023/12/20 09:11:06;;;;;;;0.75;0.75;;;6.80;99.90;;;;;;4999194;28;20248;-86
2023/12/20 09:13:34;;;;;;;0.73;0.50;;;7.30;99.90;;;;;;5005487;28;20246;-87
2023/12/20 09:16:00;;;;;;;1.05;0.60;;;;;;;;;;4989201;28;20207;-89
2023/12/20 09:18:26;;;;;;;1.25;0.45;;;6.70;99.90;;;;;;4994515;28;20250;-88
2023/12/20 09:20:52;;;;;;;2.03;1.67;;;;;;;;;;4997363;28;20203;-85
2023/12/20 09:23:18;;;;;;;0.67;0.50;;;6.90;99.90;;;;;;4983118;28;20897;-86
2023/12/20 09:25:44;;;;;;;1.27;1.17;;;7.00;99.90;;;;;;4987498;28;20442;-88
2023/12/20 09:28:09;;;;;;;3.00;1.60;;;7.00;99.90;;;;;;4984068;28;20207;-88
2023/12/20 09:30:37;;;;;;;6.50;1.37;;;7.10;99.90;;;;;;4978717;28;20211;-87
2023/12/20 09:33:03;;;;;;;1.20;1.10;;;6.70;99.90;;;;;;4983295;28;20218;-86
2023/12/20 09:35:28;;;;;;;1.37;0.93;;;6.50;99.90;;;;;;4987938;28;20228;-88
2023/12/20 09:37:54;;;;;;;2.50;1.13;;;6.20;99.90;;;;;;4984156;28;20236;-88
2023/12/20 09:40:20;;;;;;;1.13;0.80;;;6.20;99.90;;;;;;4990776;28;20193;-87
2023/12/20 09:42:58;;;;;;;1.63;0.52;;;6.00;99.90;;;;;;4992413;28;20190;-85
2023/12/20 09:45:23;;;;;;;2.05;0.60;;;6.00;99.90;;;;;;4985962;28;20488;-86
2023/12/20 09:47:51;;;;;;;6.40;0.97;;;6.10;99.90;;;;;;4996606;28;20206;-88
2023/12/20 09:50:19;;;;;;;1.20;0.95;;;6.20;99.90;;;;;;5001688;28;20191;-87
2023/12/20 09:52:51;;;;;;;1.00;0.90;;;6.60;99.90;;;;;;4992541;28;20211;-85
2023/12/20 09:55:18;;;;;;;3.05;0.77;;;6.80;99.90;;;;;;4990888;28;20182;-88
2023/12/20 09:57:44;;;;;;;2.50;1.33;;;6.90;99.90;;;;;;4965239;28;20223;-87
2023/12/20 10:00:10;;;;;;;0.90;0.90;;;6.90;99.90;;;;;;4994016;28;20208;-88
2023/12/20 10:02:41;;;;;;;1.67;0.70;;;6.90;99.90;;;;;;5012984;28;20183;-86
2023/12/20 10:05:11;;;;;;;1.55;0.80;;;6.90;99.90;;;;;;4976534;28;20715;-87
2023/12/20 10:07:37;;;;;;;0.40;0.40;;;6.90;99.90;;;;;;4984804;28;20204;-86
2023/12/20 10:10:04;;;;;;;2.15;0.70;;;6.80;99.90;;;;;;4994590;28;20667;-86
2023/12/20 10:12:30;;;;;;;1.13;0.88;;;6.80;99.90;;;;;;4975764;28;20207;-85
2023/12/20 10:14:57;;;;;;;8.60;1.20;;;6.70;99.90;;;;;;4982132;28;20233;-87
2023/12/20 10:17:24;;;;;;;0.82;0.82;;;6.20;99.90;;;;;;4988198;28;20172;-87
2023/12/20 10:19:52;;;;;;;0.75;0.60;;;6.20;99.90;;;;;;4993687;28;20696;-87
2023/12/20 10:22:17;;;;;;;1.52;0.52;;;6.20;99.90;;;;;;4998922;28;20670;-87
2023/12/20 10:24:43;;;;;;;5.13;0.83;;;6.20;99.90;;;;;;4988854;28;20267;-87
2023/12/20 10:27:09;;;;;;;0.63;0.63;;;6.00;99.90;;;;;;4991228;28;20187;-84
2023/12/20 10:29:36;;;;;;;1.40;1.30;;;6.00;99.90;;;;;;5000204;28;20276;-85
2023/12/20 10:32:24;;;;;;;0.70;0.70;;;5.90;99.90;;;;;;4972467;28;20555;-85
2023/12/20 10:34:51;;;;;;;4.90;1.35;;;5.90;99.90;;;;;;4981491;28;20198;-80
2023/12/20 10:37:17;;;;;;;0.65;0.65;;;5.90;99.90;;;;;;4983713;28;20203;-83
2023/12/20 10:40:03;;;;;;;0.40;0.40;;;5.90;99.90;;;;;;4998654;28;20256;-85
2023/12/20 10:42:30;;;;;;;2.05;0.63;;;6.00;99.90;;;;;;5006298;28;20190;-82
2023/12/20 10:44:56;;;;;;;16.35;1.73;;;6.10;99.90;;;;;;4967906;28;20191;-85
2023/12/20 10:47:24;;;;;;;1.40;0.47;;;6.30;99.90;;;;;;4951662;28;20191;-85
2023/12/20 10:49:51;;;;;;;1.00;0.45;;;6.30;99.90;;;;;;4981119;28;20187;-86
2023/12/20 10:52:17;;;;;;;3.45;0.75;;;6.20;99.90;;;;;;4980715;28;20206;-82
2023/12/20 10:54:44;;;;;;;1.70;1.20;;;6.30;99.90;;;;;;4970137;28;20179;-85
2023/12/20 10:57:10;;;;;;;3.42;0.93;;;6.30;99.90;;;;;;4983015;28;20949;-84
2023/12/20 10:59:38;;;;;;;2.47;0.60;;;6.20;99.90;;;;;;4995052;28;20187;-83
2023/12/20 11:02:07;;;;;;;0.88;0.50;;;6.20;99.90;;;;;;4996372;28;20218;-84
2023/12/20 11:04:44;;;;;;;1.52;0.70;;;6.20;99.90;;;;;;4955809;28;21127;-82
2023/12/20 11:07:45;;;;;;;0.90;0.52;;;6.50;99.90;;;;;;4997893;28;20190;-84
2023/12/20 11:10:26;;;;;;;0.50;0.50;;;6.50;99.90;;;;;;4987472;28;20703;-84
2023/12/20 11:13:17;;;;;;;3.25;1.00;;;6.30;99.90;;;;;;4984240;28;20229;-81
2023/12/20 11:15:43;;;;;;;0.30;0.30;;;6.10;99.90;;;;;;4967573;28;20566;-83
2023/12/20 11:18:09;;;;;;;0.40;0.40;;;6.20;99.90;;;;;;4967756;28;20209;-83
2023/12/20 11:20:39;;;;;;;13.33;2.00;;;6.30;99.90;;;;;;4992512;28;20195;-82
2023/12/20 11:23:06;;;;;;;1.45;1.00;;;6.20;99.90;;;;;;4979469;28;20191;-85
2023/12/20 11:25:53;;;;;;;0.70;0.60;;;6.20;99.90;;;;;;4981291;28;20323;-86
2023/12/20 11:28:24;;;;;;;1.02;1.02;;;6.10;99.90;;;;;;4956059;28;20414;-84
2023/12/20 11:30:55;;;;;;;1.58;0.43;;;6.10;99.90;;;;;;4983157;28;20187;-81
2023/12/20 11:33:25;;;;;;;15.25;1.42;;;6.00;99.90;;;;;;4989905;28;20313;-85
2023/12/20 11:35:51;;;;;;;2.58;1.10;;;5.90;99.90;;;;;;4981052;28;20191;-83
2023/12/20 11:38:19;;;;;;;9.82;0.98;;;5.90;99.90;;;;;;4971467;28;20199;-84
2023/12/20 11:40:48;;;;;;;3.90;1.10;;;6.10;99.90;;;;;;4984038;28;20214;-84
2023/12/20 11:43:30;;;;;;;1.15;0.73;;;6.10;99.90;;;;;;5007485;28;20218;-86
2023/12/20 11:45:55;;;;;;;1.50;1.00;;;6.30;99.90;;;;;;4978631;28;20195;-84
2023/12/20 11:48:21;;;;;;;0.50;0.47;;;6.30;99.90;;;;;;4981147;28;20223;-84
2023/12/20 11:50:47;;;;;;;0.53;0.53;;;6.20;99.90;;;;;;4970909;28;20192;-85
2023/12/20 11:53:13;;;;;;;0.63;0.63;;;6.30;99.90;;;;;;4983256;28;20461;-86
2023/12/20 11:55:39;;;;;;;6.63;1.00;;;6.30;99.90;;;;;;4983561;28;20183;-82
2023/12/20 11:58:04;;;;;;;1.37;0.80;;;6.30;99.90;;;;;;4973704;28;20207;-84
2023/12/20 12:00:30;;;;;;;5.67;1.80;;;6.20;99.90;;;;;;4979136;28;20298;-86
2023/12/20 12:02:57;;;;;;;2.70;0.80;;;6.30;99.90;;;;;;4977540;28;20195;-84
2023/12/20 12:05:23;;;;;;;4.38;1.35;;;6.30;99.90;;;;;;4985993;28;20245;-84
2023/12/20 12:07:48;;;;;;;0.50;0.50;;;6.40;99.90;;;;;;4996295;28;20222;-87
2023/12/20 12:10:14;;;;;;;0.70;0.70;;;6.30;99.90;;;;;;4969631;28;21157;-85
2023/12/20 12:12:39;;;;;;;1.40;0.60;;;6.30;99.90;;;;;;4969784;28;20206;-84
2023/12/20 12:15:06;;;;;;;0.67;0.67;;;6.20;99.90;;;;;;4969381;28;20217;-82
2023/12/20 12:17:31;;;;;;;0.60;0.50;;;6.10;99.90;;;;;;4963461;28;20203;-82
2023/12/20 12:20:05;;;;;;;1.40;0.73;;;6.00;99.90;;;;;;4981145;28;20228;-82
2023/12/20 12:22:30;;;;;;;1.70;1.25;;;5.90;99.90;;;;;;4980121;28;20194;-83
2023/12/20 12:24:59;;;;;;;1.33;1.00;;;5.80;99.90;;;;;;4983749;28;20195;-86
2023/12/20 12:27:25;;;;;;;9.52;1.25;;;5.70;99.90;;;;;;4988725;28;20344;-82
2023/12/20 12:30:03;;;;;;;2.30;0.50;;;6.00;99.90;;;;;;4974700;28;20317;-85
2023/12/20 12:32:29;;;;;;;0.68;0.68;;;5.80;99.90;;;;;;4994554;28;20241;-82
2023/12/20 12:34:54;;;;;;;1.07;1.00;;;5.60;99.90;;;;;;4999417;28;20195;-84
2023/12/20 12:37:20;;;;;;;0.70;0.50;;;5.60;99.90;;;;;;4988117;28;20238;-85
2023/12/20 12:39:47;;;;;;;0.70;0.57;;;5.50;99.90;;;;;;4999587;28;20195;-84
2023/12/20 12:42:12;;;;;;;0.90;0.85;;;5.40;99.90;;;;;;4955967;28;20228;-84
2023/12/20 12:44:38;;;;;;;1.03;1.03;;;5.40;99.90;;;;;;4981230;28;20210;-88
2023/12/20 12:47:03;;;;;;;1.07;0.70;;;5.50;99.90;;;;;;4977738;28;20266;-85
2023/12/20 12:49:29;;;;;;;0.90;0.60;;;5.50;99.90;;;;;;4984803;28;20806;-85
2023/12/20 12:51:58;;;;;;;1.73;1.13;;;5.40;99.90;;;;;;4973793;28;20222;-83
2023/12/20 12:54:23;;;;;;;1.25;1.15;;;5.40;99.90;;;;;;4971610;28;20187;-84
2023/12/20 12:56:50;;;;;;;0.83;0.70;;;5.40;99.90;;;;;;4985284;28;20198;-85
2023/12/20 12:59:16;;;;;;;2.25;1.40;;;5.40;99.90;;;;;;4985219;28;20213;-85
2023/12/20 13:01:42;;;;;;;1.60;0.60;;;5.40;99.90;;;;;;4993393;28;20191;-82
2023/12/20 13:04:10;;;;;;;1.10;1.00;;;5.50;99.90;;;;;;5006087;28;20202;-85
2023/12/20 13:06:40;;;;;;;2.00;0.77;;;5.60;99.90;;;;;;4998261;28;20194;-83